Terminal Aerodrome Forecast
Issued by NWS

Home | Current Version | Previous Version | Text Only | Print | Product List | Glossary On
Versions: 1 2 3 4 5 6 7 8 9 10 11 12
000
FTUS43 KDMX 192347
TAFFOD
TAF
KFOD 192347Z 2000/2024 21008KT P6SM BKN220
     FM200700 26004KT P6SM SCT230
     FM201400 VRB03KT 6SM BR BKN120
     FM202100 VRB03KT P6SM SCT007 OVC100=

USA.gov is the U.S. government's official web portal to all federal, state and local government web resources and services.